This is the latest recevied weather packets stored in our database for station/object OK6FS-6. If no packets are shown the sender has not sent any weather packets the latest 10 day(s).
| Time | Temp. | Humidity | Pressure | Rain* | Wind** | Luminosity | Snow |
|---|---|---|---|---|---|---|---|
| 1778010878 | 19.44° C | 51% | 1007.1 hPa | - | - | - | - |
| 1778005124 | 21.11° C | 47% | 1006.7 hPa | - | - | - | - |
| 1777998640 | 24.44° C | 39% | 1006.6 hPa | - | - | - | - |
| 1777995749 | 26.67° C | 35% | 1006.5 hPa | - | - | - | - |
| 1777992869 | 27.78° C | 31% | 1006.9 hPa | - | - | - | - |
| 1777990719 | 27.78° C | 29% | 1007.5 hPa | - | - | - | - |
| 1777988562 | 27.78° C | 29% | 1008 hPa | - | - | - | - |
| 1777985701 | 27.78° C | 31% | 1008.8 hPa | - | - | - | - |
| 1777979922 | 25.56° C | 36% | 1010.2 hPa | - | - | - | - |
| 1777971271 | 24.44° C | 35% | 1011.6 hPa | - | - | - | - |
| 1777968400 | 23.89° C | 34% | 1012.1 hPa | - | - | - | - |
| 1777967698 | 23.89° C | 37% | 1012.1 hPa | - | - | - | - |
| 1777966965 | 22.22° C | 39% | 1012.2 hPa | - | - | - | - |
| 1777955425 | 12.78° C | 59% | 1012 hPa | - | - | - | - |
| 1777950407 | 12.78° C | 56% | 1012.2 hPa | - | - | - | - |
| 1777949675 | 13.33° C | 55% | 1012.3 hPa | - | - | - | - |
| 1777948962 | 13.33° C | 55% | 1012.3 hPa | - | - | - | - |
| 1777948229 | 13.33° C | 55% | 1012.5 hPa | - | - | - | - |
| 1777945360 | 13.89° C | 53% | 1012.6 hPa | - | - | - | - |
| 1777942468 | 15.56° C | 49% | 1012.6 hPa | - | - | - | - |
| 1777931677 | 19.44° C | 41% | 1013.3 hPa | - | - | - | - |
| 1777926630 | 20° C | 40% | 1013.9 hPa | - | - | - | - |
| 1777920164 | 22.22° C | 38% | 1013.9 hPa | - | - | - | - |
| 1777915848 | 24.44° C | 34% | 1013.8 hPa | - | - | - | - |
| 1777907218 | 26.67° C | 30% | 1014.2 hPa | - | - | - | - |
* Rain since midnight (hover to see other rain measurements)
** Current wind speed in m/s (hover to see current wind gust speed)